sensor_id;sensor_type;location;lat;lon;timestamp;P1;durP1;ratioP1;P2;durP2;ratioP2
5416;SDS011;2731;50.754;12.990;2023-12-07T00:01:33;24.10;;;14.43;;
5416;SDS011;2731;50.754;12.990;2023-12-07T00:04:22;24.65;;;15.63;;
5416;SDS011;2731;50.754;12.990;2023-12-07T00:06:51;21.38;;;12.55;;
5416;SDS011;2731;50.754;12.990;2023-12-07T00:09:38;20.35;;;12.30;;
5416;SDS011;2731;50.754;12.990;2023-12-07T00:12:24;17.00;;;11.63;;
5416;SDS011;2731;50.754;12.990;2023-12-07T00:15:13;20.40;;;12.98;;
5416;SDS011;2731;50.754;12.990;2023-12-07T00:17:59;26.67;;;16.30;;
5416;SDS011;2731;50.754;12.990;2023-12-07T00:20:47;18.08;;;11.68;;
5416;SDS011;2731;50.754;12.990;2023-12-07T00:23:34;21.17;;;12.45;;
5416;SDS011;2731;50.754;12.990;2023-12-07T00:26:23;21.67;;;13.40;;
5416;SDS011;2731;50.754;12.990;2023-12-07T00:29:09;22.77;;;13.65;;
5416;SDS011;2731;50.754;12.990;2023-12-07T00:31:56;23.88;;;14.23;;
5416;SDS011;2731;50.754;12.990;2023-12-07T00:34:42;21.05;;;13.38;;
5416;SDS011;2731;50.754;12.990;2023-12-07T00:37:25;20.92;;;13.27;;
5416;SDS011;2731;50.754;12.990;2023-12-07T00:39:52;21.83;;;13.13;;
5416;SDS011;2731;50.754;12.990;2023-12-07T00:42:19;17.95;;;12.10;;
5416;SDS011;2731;50.754;12.990;2023-12-07T00:45:07;18.27;;;11.45;;
5416;SDS011;2731;50.754;12.990;2023-12-07T00:47:58;20.45;;;12.77;;
5416;SDS011;2731;50.754;12.990;2023-12-07T00:50:47;18.83;;;10.55;;
5416;SDS011;2731;50.754;12.990;2023-12-07T00:53:17;18.58;;;11.65;;
5416;SDS011;2731;50.754;12.990;2023-12-07T00:55:47;17.17;;;10.43;;
5416;SDS011;2731;50.754;12.990;2023-12-07T00:58:34;16.20;;;10.10;;
5416;SDS011;2731;50.754;12.990;2023-12-07T01:01:23;13.85;;;9.43;;
5416;SDS011;2731;50.754;12.990;2023-12-07T01:04:12;13.60;;;9.68;;
5416;SDS011;2731;50.754;12.990;2023-12-07T01:06:59;15.35;;;10.48;;
5416;SDS011;2731;50.754;12.990;2023-12-07T01:09:45;19.15;;;11.45;;
5416;SDS011;2731;50.754;12.990;2023-12-07T01:12:32;17.80;;;9.85;;
5416;SDS011;2731;50.754;12.990;2023-12-07T01:15:01;19.70;;;11.80;;
5416;SDS011;2731;50.754;12.990;2023-12-07T01:17:51;19.00;;;11.40;;
5416;SDS011;2731;50.754;12.990;2023-12-07T01:20:37;16.63;;;11.48;;
5416;SDS011;2731;50.754;12.990;2023-12-07T01:23:27;20.95;;;12.73;;
5416;SDS011;2731;50.754;12.990;2023-12-07T01:26:18;20.33;;;12.52;;
5416;SDS011;2731;50.754;12.990;2023-12-07T01:28:45;19.13;;;11.73;;
5416;SDS011;2731;50.754;12.990;2023-12-07T01:31:30;21.70;;;12.93;;
5416;SDS011;2731;50.754;12.990;2023-12-07T01:34:16;20.88;;;13.15;;
5416;SDS011;2731;50.754;12.990;2023-12-07T01:37:05;20.20;;;13.30;;
5416;SDS011;2731;50.754;12.990;2023-12-07T01:39:54;17.73;;;11.75;;
5416;SDS011;2731;50.754;12.990;2023-12-07T01:42:48;19.33;;;12.07;;
5416;SDS011;2731;50.754;12.990;2023-12-07T01:45:37;23.10;;;12.65;;
5416;SDS011;2731;50.754;12.990;2023-12-07T01:48:11;18.55;;;11.60;;
5416;SDS011;2731;50.754;12.990;2023-12-07T01:50:58;19.13;;;10.68;;
5416;SDS011;2731;50.754;12.990;2023-12-07T01:53:49;21.50;;;12.07;;
5416;SDS011;2731;50.754;12.990;2023-12-07T01:56:34;18.23;;;11.75;;
5416;SDS011;2731;50.754;12.990;2023-12-07T01:59:02;19.08;;;11.35;;
5416;SDS011;2731;50.754;12.990;2023-12-07T02:01:52;17.05;;;11.35;;
5416;SDS011;2731;50.754;12.990;2023-12-07T02:04:37;18.10;;;11.35;;
5416;SDS011;2731;50.754;12.990;2023-12-07T02:07:23;19.35;;;11.73;;
5416;SDS011;2731;50.754;12.990;2023-12-07T02:10:12;19.80;;;12.68;;
5416;SDS011;2731;50.754;12.990;2023-12-07T02:13:02;19.13;;;11.95;;
5416;SDS011;2731;50.754;12.990;2023-12-07T02:15:48;16.58;;;11.65;;
5416;SDS011;2731;50.754;12.990;2023-12-07T02:21:56;20.40;;;12.48;;
5416;SDS011;2731;50.754;12.990;2023-12-07T02:24:48;19.50;;;12.00;;
5416;SDS011;2731;50.754;12.990;2023-12-07T02:27:43;20.80;;;12.70;;
5416;SDS011;2731;50.754;12.990;2023-12-07T02:30:33;24.25;;;12.52;;
5416;SDS011;2731;50.754;12.990;2023-12-07T02:33:21;18.40;;;12.07;;
5416;SDS011;2731;50.754;12.990;2023-12-07T02:35:47;22.00;;;13.02;;
5416;SDS011;2731;50.754;12.990;2023-12-07T02:38:35;19.38;;;11.60;;
5416;SDS011;2731;50.754;12.990;2023-12-07T02:41:22;24.20;;;13.70;;
5416;SDS011;2731;50.754;12.990;2023-12-07T02:44:10;21.05;;;12.95;;
5416;SDS011;2731;50.754;12.990;2023-12-07T02:46:58;16.75;;;11.10;;
5416;SDS011;2731;50.754;12.990;2023-12-07T02:49:48;19.23;;;11.82;;
5416;SDS011;2731;50.754;12.990;2023-12-07T02:52:18;19.35;;;12.10;;
5416;SDS011;2731;50.754;12.990;2023-12-07T02:55:05;21.17;;;12.20;;
5416;SDS011;2731;50.754;12.990;2023-12-07T02:57:52;25.15;;;13.02;;
5416;SDS011;2731;50.754;12.990;2023-12-07T03:00:59;23.83;;;13.07;;
5416;SDS011;2731;50.754;12.990;2023-12-07T03:03:46;18.27;;;11.35;;
5416;SDS011;2731;50.754;12.990;2023-12-07T03:06:34;19.60;;;12.27;;
5416;SDS011;2731;50.754;12.990;2023-12-07T03:09:20;20.90;;;12.45;;
5416;SDS011;2731;50.754;12.990;2023-12-07T03:11:48;23.42;;;13.55;;
5416;SDS011;2731;50.754;12.990;2023-12-07T03:14:34;22.05;;;13.38;;
5416;SDS011;2731;50.754;12.990;2023-12-07T03:17:21;23.45;;;14.90;;
5416;SDS011;2731;50.754;12.990;2023-12-07T03:20:07;20.15;;;12.35;;
5416;SDS011;2731;50.754;12.990;2023-12-07T03:22:59;24.95;;;14.63;;
5416;SDS011;2731;50.754;12.990;2023-12-07T03:25:45;21.38;;;14.30;;
5416;SDS011;2731;50.754;12.990;2023-12-07T03:28:31;19.05;;;12.13;;
5416;SDS011;2731;50.754;12.990;2023-12-07T03:31:00;23.17;;;12.77;;
5416;SDS011;2731;50.754;12.990;2023-12-07T03:33:46;22.85;;;14.15;;
5416;SDS011;2731;50.754;12.990;2023-12-07T03:36:33;21.60;;;13.90;;
5416;SDS011;2731;50.754;12.990;2023-12-07T03:39:20;23.63;;;14.85;;
5416;SDS011;2731;50.754;12.990;2023-12-07T03:42:27;29.02;;;15.45;;
5416;SDS011;2731;50.754;12.990;2023-12-07T03:45:13;24.98;;;13.98;;
5416;SDS011;2731;50.754;12.990;2023-12-07T03:48:01;27.75;;;15.15;;
5416;SDS011;2731;50.754;12.990;2023-12-07T03:50:27;26.77;;;14.88;;
5416;SDS011;2731;50.754;12.990;2023-12-07T03:53:13;24.20;;;13.75;;
5416;SDS011;2731;50.754;12.990;2023-12-07T03:55:59;26.08;;;15.10;;
5416;SDS011;2731;50.754;12.990;2023-12-07T03:58:46;27.17;;;15.93;;
5416;SDS011;2731;50.754;12.990;2023-12-07T04:01:33;23.33;;;14.60;;
5416;SDS011;2731;50.754;12.990;2023-12-07T04:04:21;26.30;;;14.88;;
5416;SDS011;2731;50.754;12.990;2023-12-07T04:07:07;26.45;;;15.38;;
5416;SDS011;2731;50.754;12.990;2023-12-07T04:09:39;24.58;;;15.32;;
5416;SDS011;2731;50.754;12.990;2023-12-07T04:12:24;27.08;;;15.27;;
5416;SDS011;2731;50.754;12.990;2023-12-07T04:15:12;23.33;;;14.98;;
5416;SDS011;2731;50.754;12.990;2023-12-07T04:17:56;23.15;;;13.88;;
5416;SDS011;2731;50.754;12.990;2023-12-07T04:20:42;28.10;;;16.52;;
5416;SDS011;2731;50.754;12.990;2023-12-07T04:23:32;27.25;;;14.82;;
5416;SDS011;2731;50.754;12.990;2023-12-07T04:26:14;25.55;;;15.10;;
5416;SDS011;2731;50.754;12.990;2023-12-07T04:29:02;28.73;;;15.90;;
5416;SDS011;2731;50.754;12.990;2023-12-07T04:31:53;25.58;;;14.20;;
5416;SDS011;2731;50.754;12.990;2023-12-07T04:34:42;26.33;;;14.80;;
5416;SDS011;2731;50.754;12.990;2023-12-07T04:37:27;25.20;;;14.45;;
5416;SDS011;2731;50.754;12.990;2023-12-07T04:40:13;31.27;;;17.25;;
5416;SDS011;2731;50.754;12.990;2023-12-07T04:42:45;26.48;;;15.50;;
5416;SDS011;2731;50.754;12.990;2023-12-07T04:45:31;25.23;;;14.52;;
5416;SDS011;2731;50.754;12.990;2023-12-07T04:48:20;24.50;;;15.23;;
5416;SDS011;2731;50.754;12.990;2023-12-07T04:50:47;21.80;;;13.52;;
5416;SDS011;2731;50.754;12.990;2023-12-07T04:53:13;25.08;;;13.93;;
5416;SDS011;2731;50.754;12.990;2023-12-07T04:56:03;21.70;;;13.32;;
5416;SDS011;2731;50.754;12.990;2023-12-07T04:58:47;23.67;;;13.73;;
5416;SDS011;2731;50.754;12.990;2023-12-07T05:01:35;24.92;;;14.13;;
5416;SDS011;2731;50.754;12.990;2023-12-07T05:04:22;23.70;;;14.32;;
5416;SDS011;2731;50.754;12.990;2023-12-07T05:07:09;22.30;;;14.02;;
5416;SDS011;2731;50.754;12.990;2023-12-07T05:09:39;27.60;;;15.10;;
5416;SDS011;2731;50.754;12.990;2023-12-07T05:12:07;22.38;;;13.70;;
5416;SDS011;2731;50.754;12.990;2023-12-07T05:14:53;25.60;;;13.85;;
5416;SDS011;2731;50.754;12.990;2023-12-07T05:17:22;21.83;;;13.02;;
5416;SDS011;2731;50.754;12.990;2023-12-07T05:20:12;22.92;;;13.00;;
5416;SDS011;2731;50.754;12.990;2023-12-07T05:22:58;25.05;;;13.15;;
5416;SDS011;2731;50.754;12.990;2023-12-07T05:25:26;19.95;;;11.32;;
5416;SDS011;2731;50.754;12.990;2023-12-07T05:28:11;19.05;;;11.35;;
5416;SDS011;2731;50.754;12.990;2023-12-07T05:30:40;20.15;;;11.88;;
5416;SDS011;2731;50.754;12.990;2023-12-07T05:33:27;20.33;;;11.32;;
5416;SDS011;2731;50.754;12.990;2023-12-07T05:36:12;16.65;;;10.13;;
5416;SDS011;2731;50.754;12.990;2023-12-07T05:38:58;17.02;;;10.65;;
5416;SDS011;2731;50.754;12.990;2023-12-07T05:41:44;20.00;;;11.65;;
5416;SDS011;2731;50.754;12.990;2023-12-07T05:44:31;19.42;;;12.07;;
5416;SDS011;2731;50.754;12.990;2023-12-07T05:47:20;20.60;;;11.43;;
5416;SDS011;2731;50.754;12.990;2023-12-07T05:50:06;17.60;;;11.00;;
5416;SDS011;2731;50.754;12.990;2023-12-07T05:52:32;19.13;;;11.30;;
5416;SDS011;2731;50.754;12.990;2023-12-07T05:55:18;22.50;;;12.27;;
5416;SDS011;2731;50.754;12.990;2023-12-07T05:58:04;20.55;;;12.23;;
5416;SDS011;2731;50.754;12.990;2023-12-07T06:00:51;19.13;;;11.23;;
5416;SDS011;2731;50.754;12.990;2023-12-07T06:03:37;19.42;;;11.88;;
5416;SDS011;2731;50.754;12.990;2023-12-07T06:06:23;18.55;;;11.18;;
5416;SDS011;2731;50.754;12.990;2023-12-07T06:09:10;18.88;;;11.63;;
5416;SDS011;2731;50.754;12.990;2023-12-07T06:11:56;19.85;;;12.55;;
5416;SDS011;2731;50.754;12.990;2023-12-07T06:14:45;19.27;;;11.82;;
5416;SDS011;2731;50.754;12.990;2023-12-07T06:17:14;21.75;;;11.88;;
5416;SDS011;2731;50.754;12.990;2023-12-07T06:20:03;21.65;;;12.82;;
5416;SDS011;2731;50.754;12.990;2023-12-07T06:22:49;19.40;;;12.93;;
5416;SDS011;2731;50.754;12.990;2023-12-07T06:25:37;20.30;;;12.20;;
5416;SDS011;2731;50.754;12.990;2023-12-07T06:28:23;20.08;;;11.98;;
5416;SDS011;2731;50.754;12.990;2023-12-07T06:31:11;21.35;;;12.48;;
5416;SDS011;2731;50.754;12.990;2023-12-07T06:33:56;21.67;;;12.02;;
5416;SDS011;2731;50.754;12.990;2023-12-07T06:36:48;21.90;;;12.23;;
5416;SDS011;2731;50.754;12.990;2023-12-07T06:39:36;26.85;;;14.18;;
5416;SDS011;2731;50.754;12.990;2023-12-07T06:42:04;20.95;;;12.38;;
5416;SDS011;2731;50.754;12.990;2023-12-07T06:45:01;23.92;;;14.18;;
5416;SDS011;2731;50.754;12.990;2023-12-07T06:47:46;20.58;;;12.90;;
5416;SDS011;2731;50.754;12.990;2023-12-07T06:50:34;21.40;;;12.20;;
5416;SDS011;2731;50.754;12.990;2023-12-07T06:53:20;21.00;;;11.90;;
5416;SDS011;2731;50.754;12.990;2023-12-07T06:56:07;23.58;;;13.95;;
5416;SDS011;2731;50.754;12.990;2023-12-07T06:58:36;20.00;;;12.25;;
5416;SDS011;2731;50.754;12.990;2023-12-07T07:01:24;20.42;;;12.80;;
5416;SDS011;2731;50.754;12.990;2023-12-07T07:04:09;23.15;;;12.00;;
5416;SDS011;2731;50.754;12.990;2023-12-07T07:06:55;21.67;;;13.00;;
5416;SDS011;2731;50.754;12.990;2023-12-07T07:09:42;22.88;;;12.95;;
5416;SDS011;2731;50.754;12.990;2023-12-07T07:12:27;23.92;;;12.70;;
5416;SDS011;2731;50.754;12.990;2023-12-07T07:15:14;22.00;;;12.27;;
5416;SDS011;2731;50.754;12.990;2023-12-07T07:17:41;22.90;;;13.13;;
5416;SDS011;2731;50.754;12.990;2023-12-07T07:20:27;21.13;;;12.07;;
5416;SDS011;2731;50.754;12.990;2023-12-07T07:23:12;23.80;;;14.05;;
5416;SDS011;2731;50.754;12.990;2023-12-07T07:25:59;21.55;;;11.75;;
5416;SDS011;2731;50.754;12.990;2023-12-07T07:28:45;17.25;;;10.85;;
5416;SDS011;2731;50.754;12.990;2023-12-07T07:31:33;21.45;;;12.15;;
5416;SDS011;2731;50.754;12.990;2023-12-07T07:34:22;20.88;;;11.23;;
5416;SDS011;2731;50.754;12.990;2023-12-07T07:37:11;16.98;;;11.02;;
5416;SDS011;2731;50.754;12.990;2023-12-07T07:39:57;19.83;;;12.43;;
5416;SDS011;2731;50.754;12.990;2023-12-07T07:42:25;21.50;;;12.73;;
5416;SDS011;2731;50.754;12.990;2023-12-07T07:45:11;23.55;;;12.32;;
5416;SDS011;2731;50.754;12.990;2023-12-07T07:48:18;21.30;;;12.43;;
5416;SDS011;2731;50.754;12.990;2023-12-07T07:51:06;20.25;;;11.48;;
5416;SDS011;2731;50.754;12.990;2023-12-07T07:53:53;21.42;;;12.27;;
5416;SDS011;2731;50.754;12.990;2023-12-07T07:56:38;22.23;;;12.77;;
5416;SDS011;2731;50.754;12.990;2023-12-07T07:59:23;17.98;;;11.65;;
5416;SDS011;2731;50.754;12.990;2023-12-07T08:02:09;26.83;;;15.43;;
5416;SDS011;2731;50.754;12.990;2023-12-07T08:04:57;22.95;;;13.07;;
5416;SDS011;2731;50.754;12.990;2023-12-07T08:07:45;19.13;;;12.82;;
5416;SDS011;2731;50.754;12.990;2023-12-07T08:10:32;113.57;;;52.80;;
5416;SDS011;2731;50.754;12.990;2023-12-07T08:13:18;45.28;;;23.60;;
5416;SDS011;2731;50.754;12.990;2023-12-07T08:16:06;108.03;;;48.13;;
5416;SDS011;2731;50.754;12.990;2023-12-07T08:18:35;144.52;;;67.28;;
5416;SDS011;2731;50.754;12.990;2023-12-07T08:21:22;78.78;;;42.33;;
5416;SDS011;2731;50.754;12.990;2023-12-07T08:24:08;65.60;;;36.47;;
5416;SDS011;2731;50.754;12.990;2023-12-07T08:26:56;40.17;;;22.70;;
5416;SDS011;2731;50.754;12.990;2023-12-07T08:29:44;20.10;;;12.75;;
5416;SDS011;2731;50.754;12.990;2023-12-07T08:32:31;23.38;;;14.27;;
5416;SDS011;2731;50.754;12.990;2023-12-07T08:35:16;32.58;;;20.25;;
5416;SDS011;2731;50.754;12.990;2023-12-07T08:38:04;21.30;;;12.65;;
5416;SDS011;2731;50.754;12.990;2023-12-07T08:40:51;24.00;;;14.77;;
5416;SDS011;2731;50.754;12.990;2023-12-07T08:43:21;26.02;;;15.80;;
5416;SDS011;2731;50.754;12.990;2023-12-07T08:46:09;22.17;;;14.25;;
5416;SDS011;2731;50.754;12.990;2023-12-07T08:48:56;21.15;;;13.13;;
5416;SDS011;2731;50.754;12.990;2023-12-07T08:51:43;16.83;;;10.38;;
5416;SDS011;2731;50.754;12.990;2023-12-07T08:54:31;19.20;;;10.70;;
5416;SDS011;2731;50.754;12.990;2023-12-07T08:57:11;20.27;;;12.05;;
5416;SDS011;2731;50.754;12.990;2023-12-07T08:59:38;17.85;;;12.05;;
5416;SDS011;2731;50.754;12.990;2023-12-07T09:02:10;21.48;;;12.00;;
5416;SDS011;2731;50.754;12.990;2023-12-07T09:04:38;21.63;;;12.50;;
5416;SDS011;2731;50.754;12.990;2023-12-07T09:07:07;22.42;;;12.48;;
5416;SDS011;2731;50.754;12.990;2023-12-07T09:09:40;19.50;;;12.05;;
5416;SDS011;2731;50.754;12.990;2023-12-07T09:12:14;19.15;;;11.18;;
5416;SDS011;2731;50.754;12.990;2023-12-07T09:14:47;18.63;;;10.93;;
5416;SDS011;2731;50.754;12.990;2023-12-07T09:17:34;19.45;;;11.68;;
5416;SDS011;2731;50.754;12.990;2023-12-07T09:20:06;18.88;;;12.20;;
5416;SDS011;2731;50.754;12.990;2023-12-07T09:22:44;19.25;;;10.98;;
5416;SDS011;2731;50.754;12.990;2023-12-07T09:25:17;24.73;;;12.93;;
5416;SDS011;2731;50.754;12.990;2023-12-07T09:27:45;19.43;;;11.20;;
5416;SDS011;2731;50.754;12.990;2023-12-07T09:30:13;21.83;;;13.18;;
5416;SDS011;2731;50.754;12.990;2023-12-07T09:32:59;15.50;;;9.85;;
5416;SDS011;2731;50.754;12.990;2023-12-07T09:35:49;17.48;;;11.07;;
5416;SDS011;2731;50.754;12.990;2023-12-07T09:38:39;19.38;;;11.68;;
5416;SDS011;2731;50.754;12.990;2023-12-07T09:41:08;21.85;;;12.07;;
5416;SDS011;2731;50.754;12.990;2023-12-07T09:43:35;21.75;;;12.32;;
5416;SDS011;2731;50.754;12.990;2023-12-07T09:46:20;19.20;;;11.43;;
5416;SDS011;2731;50.754;12.990;2023-12-07T09:49:05;20.33;;;12.15;;
5416;SDS011;2731;50.754;12.990;2023-12-07T09:51:33;18.42;;;11.57;;
5416;SDS011;2731;50.754;12.990;2023-12-07T09:54:20;17.75;;;11.15;;
5416;SDS011;2731;50.754;12.990;2023-12-07T09:57:12;23.17;;;12.05;;
5416;SDS011;2731;50.754;12.990;2023-12-07T09:59:57;20.00;;;12.15;;
5416;SDS011;2731;50.754;12.990;2023-12-07T10:02:44;17.92;;;11.52;;
5416;SDS011;2731;50.754;12.990;2023-12-07T10:05:32;18.35;;;10.57;;
5416;SDS011;2731;50.754;12.990;2023-12-07T10:08:29;21.00;;;11.55;;
5416;SDS011;2731;50.754;12.990;2023-12-07T10:11:16;17.92;;;11.10;;
5416;SDS011;2731;50.754;12.990;2023-12-07T10:13:45;19.65;;;12.05;;
5416;SDS011;2731;50.754;12.990;2023-12-07T10:16:33;15.85;;;10.95;;
5416;SDS011;2731;50.754;12.990;2023-12-07T10:19:24;19.60;;;12.27;;
5416;SDS011;2731;50.754;12.990;2023-12-07T10:22:13;18.98;;;11.52;;
5416;SDS011;2731;50.754;12.990;2023-12-07T10:25:03;19.35;;;11.18;;
5416;SDS011;2731;50.754;12.990;2023-12-07T10:27:49;19.77;;;11.52;;
5416;SDS011;2731;50.754;12.990;2023-12-07T10:30:17;20.02;;;13.10;;
5416;SDS011;2731;50.754;12.990;2023-12-07T10:32:50;22.75;;;11.60;;
5416;SDS011;2731;50.754;12.990;2023-12-07T10:35:41;25.33;;;13.00;;
5416;SDS011;2731;50.754;12.990;2023-12-07T10:38:27;19.58;;;11.68;;
5416;SDS011;2731;50.754;12.990;2023-12-07T10:41:15;24.23;;;13.38;;
5416;SDS011;2731;50.754;12.990;2023-12-07T10:44:03;22.73;;;12.95;;
5416;SDS011;2731;50.754;12.990;2023-12-07T10:46:50;23.17;;;13.82;;
5416;SDS011;2731;50.754;12.990;2023-12-07T10:49:19;23.67;;;12.35;;
5416;SDS011;2731;50.754;12.990;2023-12-07T10:52:12;21.15;;;12.95;;
5416;SDS011;2731;50.754;12.990;2023-12-07T10:58:18;20.05;;;12.57;;
5416;SDS011;2731;50.754;12.990;2023-12-07T11:01:09;22.75;;;13.55;;
5416;SDS011;2731;50.754;12.990;2023-12-07T11:03:57;24.02;;;14.30;;
5416;SDS011;2731;50.754;12.990;2023-12-07T11:06:44;22.95;;;13.52;;
5416;SDS011;2731;50.754;12.990;2023-12-07T11:09:16;20.40;;;13.25;;
5416;SDS011;2731;50.754;12.990;2023-12-07T11:11:59;24.55;;;13.13;;
5416;SDS011;2731;50.754;12.990;2023-12-07T11:14:27;22.27;;;12.20;;
5416;SDS011;2731;50.754;12.990;2023-12-07T11:17:12;22.98;;;13.68;;
5416;SDS011;2731;50.754;12.990;2023-12-07T11:20:06;22.42;;;13.60;;
5416;SDS011;2731;50.754;12.990;2023-12-07T11:22:32;21.33;;;13.20;;
5416;SDS011;2731;50.754;12.990;2023-12-07T11:25:04;22.33;;;13.30;;
5416;SDS011;2731;50.754;12.990;2023-12-07T11:27:34;20.35;;;12.13;;
5416;SDS011;2731;50.754;12.990;2023-12-07T11:30:01;25.70;;;13.65;;
5416;SDS011;2731;50.754;12.990;2023-12-07T11:32:29;20.98;;;12.32;;
5416;SDS011;2731;50.754;12.990;2023-12-07T11:35:06;22.85;;;13.57;;
5416;SDS011;2731;50.754;12.990;2023-12-07T11:40:36;24.85;;;13.63;;
5416;SDS011;2731;50.754;12.990;2023-12-07T11:43:04;24.58;;;13.60;;
5416;SDS011;2731;50.754;12.990;2023-12-07T11:45:47;24.70;;;13.38;;
5416;SDS011;2731;50.754;12.990;2023-12-07T11:48:16;23.58;;;14.02;;
5416;SDS011;2731;50.754;12.990;2023-12-07T11:55:56;23.08;;;12.70;;
5416;SDS011;2731;50.754;12.990;2023-12-07T11:58:27;24.80;;;13.52;;
5416;SDS011;2731;50.754;12.990;2023-12-07T12:01:06;27.95;;;14.95;;
5416;SDS011;2731;50.754;12.990;2023-12-07T12:03:34;21.83;;;13.20;;
5416;SDS011;2731;50.754;12.990;2023-12-07T12:06:06;21.98;;;13.35;;
5416;SDS011;2731;50.754;12.990;2023-12-07T12:08:45;24.55;;;14.13;;
5416;SDS011;2731;50.754;12.990;2023-12-07T12:11:14;24.35;;;12.77;;
5416;SDS011;2731;50.754;12.990;2023-12-07T12:13:40;22.92;;;11.57;;
5416;SDS011;2731;50.754;12.990;2023-12-07T12:16:08;23.70;;;13.98;;
5416;SDS011;2731;50.754;12.990;2023-12-07T12:18:37;22.60;;;12.70;;
5416;SDS011;2731;50.754;12.990;2023-12-07T12:21:06;21.23;;;13.65;;
5416;SDS011;2731;50.754;12.990;2023-12-07T12:23:35;20.65;;;12.48;;
5416;SDS011;2731;50.754;12.990;2023-12-07T12:26:08;20.65;;;12.73;;
5416;SDS011;2731;50.754;12.990;2023-12-07T12:28:37;18.38;;;11.95;;
5416;SDS011;2731;50.754;12.990;2023-12-07T12:31:09;27.67;;;14.05;;
5416;SDS011;2731;50.754;12.990;2023-12-07T12:33:38;25.17;;;13.52;;
5416;SDS011;2731;50.754;12.990;2023-12-07T12:36:06;25.00;;;11.68;;
5416;SDS011;2731;50.754;12.990;2023-12-07T12:38:36;27.98;;;14.85;;
5416;SDS011;2731;50.754;12.990;2023-12-07T12:41:04;26.80;;;14.88;;
5416;SDS011;2731;50.754;12.990;2023-12-07T12:43:34;20.38;;;11.80;;
5416;SDS011;2731;50.754;12.990;2023-12-07T12:46:03;23.85;;;12.13;;
5416;SDS011;2731;50.754;12.990;2023-12-07T12:48:30;21.70;;;13.05;;
5416;SDS011;2731;50.754;12.990;2023-12-07T12:51:07;20.23;;;12.45;;
5416;SDS011;2731;50.754;12.990;2023-12-07T12:53:34;20.27;;;11.80;;
5416;SDS011;2731;50.754;12.990;2023-12-07T12:56:01;20.15;;;12.23;;
5416;SDS011;2731;50.754;12.990;2023-12-07T12:58:28;21.25;;;12.18;;
5416;SDS011;2731;50.754;12.990;2023-12-07T13:00:55;24.45;;;12.10;;
5416;SDS011;2731;50.754;12.990;2023-12-07T13:03:23;18.27;;;10.82;;
5416;SDS011;2731;50.754;12.990;2023-12-07T13:05:51;19.30;;;12.15;;
5416;SDS011;2731;50.754;12.990;2023-12-07T13:08:22;18.13;;;11.40;;
5416;SDS011;2731;50.754;12.990;2023-12-07T13:10:49;18.35;;;11.35;;
5416;SDS011;2731;50.754;12.990;2023-12-07T13:13:17;20.05;;;12.90;;
5416;SDS011;2731;50.754;12.990;2023-12-07T13:15:44;26.48;;;14.75;;
5416;SDS011;2731;50.754;12.990;2023-12-07T13:18:12;21.63;;;12.63;;
5416;SDS011;2731;50.754;12.990;2023-12-07T13:20:39;23.92;;;15.00;;
5416;SDS011;2731;50.754;12.990;2023-12-07T13:23:07;22.08;;;13.18;;
5416;SDS011;2731;50.754;12.990;2023-12-07T13:25:36;21.63;;;13.70;;
5416;SDS011;2731;50.754;12.990;2023-12-07T13:28:04;20.73;;;12.65;;
5416;SDS011;2731;50.754;12.990;2023-12-07T13:30:34;21.08;;;12.18;;
5416;SDS011;2731;50.754;12.990;2023-12-07T13:33:02;21.15;;;13.40;;
5416;SDS011;2731;50.754;12.990;2023-12-07T13:35:34;25.65;;;13.80;;
5416;SDS011;2731;50.754;12.990;2023-12-07T13:38:11;27.45;;;15.77;;
5416;SDS011;2731;50.754;12.990;2023-12-07T13:40:40;31.15;;;14.32;;
5416;SDS011;2731;50.754;12.990;2023-12-07T13:43:08;22.20;;;13.20;;
5416;SDS011;2731;50.754;12.990;2023-12-07T13:45:35;24.00;;;14.65;;
5416;SDS011;2731;50.754;12.990;2023-12-07T13:48:04;23.52;;;14.70;;
5416;SDS011;2731;50.754;12.990;2023-12-07T13:50:31;20.95;;;12.60;;
5416;SDS011;2731;50.754;12.990;2023-12-07T13:52:57;22.73;;;13.45;;
5416;SDS011;2731;50.754;12.990;2023-12-07T13:55:24;31.42;;;18.40;;
5416;SDS011;2731;50.754;12.990;2023-12-07T13:57:52;24.67;;;14.63;;
5416;SDS011;2731;50.754;12.990;2023-12-07T14:00:21;24.27;;;13.43;;
5416;SDS011;2731;50.754;12.990;2023-12-07T14:02:50;23.58;;;13.20;;
5416;SDS011;2731;50.754;12.990;2023-12-07T14:05:17;24.85;;;14.27;;
5416;SDS011;2731;50.754;12.990;2023-12-07T14:07:45;52.22;;;29.45;;
5416;SDS011;2731;50.754;12.990;2023-12-07T14:10:13;23.83;;;13.82;;
5416;SDS011;2731;50.754;12.990;2023-12-07T14:12:42;32.67;;;18.73;;
5416;SDS011;2731;50.754;12.990;2023-12-07T14:15:12;27.02;;;15.25;;
5416;SDS011;2731;50.754;12.990;2023-12-07T14:17:39;22.83;;;13.38;;
5416;SDS011;2731;50.754;12.990;2023-12-07T14:20:08;29.67;;;16.88;;
5416;SDS011;2731;50.754;12.990;2023-12-07T14:22:37;35.92;;;18.25;;
5416;SDS011;2731;50.754;12.990;2023-12-07T14:25:05;27.45;;;17.63;;
5416;SDS011;2731;50.754;12.990;2023-12-07T14:27:34;23.77;;;13.95;;
5416;SDS011;2731;50.754;12.990;2023-12-07T14:30:03;22.92;;;12.95;;
5416;SDS011;2731;50.754;12.990;2023-12-07T14:32:30;23.17;;;13.00;;
5416;SDS011;2731;50.754;12.990;2023-12-07T14:34:56;20.23;;;12.10;;
5416;SDS011;2731;50.754;12.990;2023-12-07T14:37:22;24.92;;;14.32;;
5416;SDS011;2731;50.754;12.990;2023-12-07T14:39:56;20.02;;;12.10;;
5416;SDS011;2731;50.754;12.990;2023-12-07T14:42:24;22.55;;;13.63;;
5416;SDS011;2731;50.754;12.990;2023-12-07T14:44:53;24.08;;;13.93;;
5416;SDS011;2731;50.754;12.990;2023-12-07T14:47:19;23.10;;;13.60;;
5416;SDS011;2731;50.754;12.990;2023-12-07T14:49:48;25.08;;;14.40;;
5416;SDS011;2731;50.754;12.990;2023-12-07T14:52:17;26.73;;;16.15;;
5416;SDS011;2731;50.754;12.990;2023-12-07T14:54:46;32.55;;;15.25;;
5416;SDS011;2731;50.754;12.990;2023-12-07T14:57:17;22.15;;;13.10;;
5416;SDS011;2731;50.754;12.990;2023-12-07T14:59:43;27.60;;;14.93;;
5416;SDS011;2731;50.754;12.990;2023-12-07T15:02:13;26.75;;;14.27;;
5416;SDS011;2731;50.754;12.990;2023-12-07T15:04:40;26.63;;;13.88;;
5416;SDS011;2731;50.754;12.990;2023-12-07T15:07:10;28.35;;;16.38;;
5416;SDS011;2731;50.754;12.990;2023-12-07T15:09:39;25.33;;;15.35;;
5416;SDS011;2731;50.754;12.990;2023-12-07T15:12:06;29.83;;;16.30;;
5416;SDS011;2731;50.754;12.990;2023-12-07T15:14:34;32.55;;;17.15;;
5416;SDS011;2731;50.754;12.990;2023-12-07T15:17:01;32.00;;;18.27;;
5416;SDS011;2731;50.754;12.990;2023-12-07T15:19:31;24.67;;;13.88;;
5416;SDS011;2731;50.754;12.990;2023-12-07T15:21:58;28.90;;;16.02;;
5416;SDS011;2731;50.754;12.990;2023-12-07T15:24:24;36.47;;;19.67;;
5416;SDS011;2731;50.754;12.990;2023-12-07T15:26:51;29.17;;;16.40;;
5416;SDS011;2731;50.754;12.990;2023-12-07T15:29:18;33.03;;;17.77;;
5416;SDS011;2731;50.754;12.990;2023-12-07T15:31:46;28.77;;;15.85;;
5416;SDS011;2731;50.754;12.990;2023-12-07T15:34:13;23.90;;;14.23;;
5416;SDS011;2731;50.754;12.990;2023-12-07T15:36:42;30.48;;;17.10;;
5416;SDS011;2731;50.754;12.990;2023-12-07T15:39:09;26.65;;;16.20;;
5416;SDS011;2731;50.754;12.990;2023-12-07T15:41:37;23.92;;;14.40;;
5416;SDS011;2731;50.754;12.990;2023-12-07T15:44:04;27.30;;;15.50;;
5416;SDS011;2731;50.754;12.990;2023-12-07T15:46:30;26.00;;;14.77;;
5416;SDS011;2731;50.754;12.990;2023-12-07T15:48:57;25.20;;;14.15;;
5416;SDS011;2731;50.754;12.990;2023-12-07T15:51:24;24.67;;;12.38;;
5416;SDS011;2731;50.754;12.990;2023-12-07T15:53:53;22.17;;;12.57;;
5416;SDS011;2731;50.754;12.990;2023-12-07T15:56:21;19.50;;;11.80;;
5416;SDS011;2731;50.754;12.990;2023-12-07T15:58:50;22.05;;;13.25;;